createdAt,value
2022-12-05T00:01:40.896Z,102091.03
2022-12-05T00:04:12.288Z,102103.34
2022-12-05T00:06:41.896Z,102096.25
2022-12-05T00:09:10.737Z,102096.31
2022-12-05T00:11:40.188Z,102102.50
2022-12-05T00:14:09.744Z,102093.75
2022-12-05T00:16:39.391Z,102094.63
2022-12-05T00:19:08.754Z,102094.63
2022-12-05T00:21:37.628Z,102092.88
2022-12-05T00:24:08.670Z,102093.75
2022-12-05T00:26:36.359Z,102092.03
2022-12-05T00:29:04.555Z,102092.06
2022-12-05T00:31:31.719Z,102097.28
2022-12-05T00:34:02.938Z,102099.09
2022-12-05T00:36:33.018Z,102090.28
2022-12-05T00:39:04.847Z,102091.25
2022-12-05T00:41:32.161Z,102098.25
2022-12-05T00:44:01.306Z,102096.44
2022-12-05T00:46:31.020Z,102089.47
2022-12-05T00:49:00.161Z,102093.03
2022-12-05T00:51:45.339Z,102092.16
2022-12-05T00:54:15.911Z,102093.91
2022-12-05T00:56:44.389Z,102093.94
2022-12-05T00:59:17.599Z,102087.75
2022-12-05T01:01:47.168Z,102097.44
2022-12-05T01:04:23.250Z,102095.69
2022-12-05T01:06:54.597Z,102095.69
2022-12-05T01:09:21.676Z,102097.47
2022-12-05T01:11:49.919Z,102101.00
2022-12-05T01:14:20.156Z,102094.00
2022-12-05T01:16:48.745Z,102094.88
2022-12-05T01:19:20.994Z,102084.34
2022-12-05T01:21:48.298Z,102096.63
2022-12-05T01:24:16.004Z,102095.78
2022-12-05T01:26:44.099Z,102098.44
2022-12-05T01:29:14.305Z,102094.03
2022-12-05T01:31:42.267Z,102101.06
2022-12-05T01:34:15.218Z,102106.28
2022-12-05T01:36:43.028Z,102109.84
2022-12-05T01:39:11.869Z,102100.16
2022-12-05T01:41:45.060Z,102106.38
2022-12-05T01:44:12.467Z,102103.72
2022-12-05T01:46:49.733Z,102100.22
2022-12-05T01:49:31.557Z,102102.84
2022-12-05T01:52:27.873Z,102104.59
2022-12-05T01:55:01.771Z,102099.34
2022-12-05T01:57:29.010Z,102107.25
2022-12-05T02:00:02.955Z,102102.91
2022-12-05T02:02:42.286Z,102113.41
2022-12-05T02:05:20.600Z,102106.38
2022-12-05T02:07:48.633Z,102109.94
2022-12-05T02:10:16.005Z,102105.53
2022-12-05T02:12:44.894Z,102096.78
2022-12-05T02:15:56.984Z,102095.94
2022-12-05T02:18:44.186Z,102096.84
2022-12-05T02:21:35.159Z,102088.91
2022-12-05T02:24:44.130Z,102094.13
2022-12-05T02:27:47.980Z,102092.50
2022-12-05T02:30:24.315Z,102096.88
2022-12-05T02:33:32.790Z,102090.72
2022-12-05T02:36:44.082Z,102094.25
2022-12-05T02:39:46.477Z,102089.88
2022-12-05T02:42:23.642Z,102091.63
2022-12-05T02:45:07.057Z,102095.16
2022-12-05T02:47:40.744Z,102097.81
2022-12-05T02:50:11.567Z,102089.03
2022-12-05T02:52:38.694Z,102089.06
2022-12-05T02:55:09.016Z,102085.59
2022-12-05T02:57:37.896Z,102088.25
2022-12-05T03:00:06.639Z,102084.75
2022-12-05T03:02:35.274Z,102084.72
2022-12-05T03:05:40.762Z,102087.38
2022-12-05T03:08:15.417Z,102084.75
2022-12-05T03:10:45.894Z,102083.88
2022-12-05T03:13:25.353Z,102090.91
2022-12-05T03:16:05.430Z,102093.59
2022-12-05T03:18:51.790Z,102092.69
2022-12-05T03:21:43.655Z,102096.25
2022-12-05T03:24:13.949Z,102093.66
2022-12-05T03:27:08.589Z,102098.06
2022-12-05T03:29:49.429Z,102095.41
2022-12-05T03:33:00.449Z,102105.09
2022-12-05T03:35:40.226Z,102097.19
2022-12-05T03:38:17.770Z,102106.00
2022-12-05T03:41:16.339Z,102106.00
2022-12-05T03:44:01.735Z,102110.41
2022-12-05T03:46:50.659Z,102111.28
2022-12-05T03:49:40.848Z,102106.03
2022-12-05T03:52:16.174Z,102109.53
2022-12-05T03:54:54.651Z,102113.06
2022-12-05T03:57:46.531Z,102111.34
2022-12-05T04:00:19.163Z,102116.63
2022-12-05T04:03:07.296Z,102121.00
2022-12-05T04:05:57.790Z,102124.56
2022-12-05T04:08:51.465Z,102122.78
2022-12-05T04:11:24.698Z,102121.91
2022-12-05T04:14:01.714Z,102118.41
2022-12-05T04:16:58.746Z,102112.28
2022-12-05T04:20:06.628Z,102123.72
2022-12-05T04:22:35.078Z,102126.34
2022-12-05T04:25:23.187Z,102116.69
2022-12-05T04:28:09.333Z,102127.22
2022-12-05T04:30:50.846Z,102121.94
2022-12-05T04:33:43.155Z,102118.50
2022-12-05T04:36:21.551Z,102115.78
2022-12-05T04:39:05.485Z,102115.84
2022-12-05T04:41:38.975Z,102117.66
2022-12-05T04:44:11.079Z,102114.09
2022-12-05T04:46:42.402Z,102118.50
2022-12-05T04:49:14.911Z,102117.66
2022-12-05T04:51:43.643Z,102111.47
2022-12-05T04:54:36.483Z,102109.72
2022-12-05T04:57:35.697Z,102120.31
2022-12-05T05:00:03.367Z,102116.81
2022-12-05T05:02:48.239Z,102117.69
2022-12-05T05:05:18.578Z,102114.16
2022-12-05T05:07:52.447Z,102113.31
2022-12-05T05:10:45.366Z,102115.03
2022-12-05T05:13:12.394Z,102111.53
2022-12-05T05:15:39.532Z,102115.06
2022-12-05T05:18:06.610Z,102117.75
2022-12-05T05:20:33.633Z,102109.84
2022-12-05T05:23:00.688Z,102118.63
2022-12-05T05:25:27.899Z,102123.00
2022-12-05T05:27:57.139Z,102117.78
2022-12-05T05:30:25.230Z,102128.34
2022-12-05T05:32:52.818Z,102121.31
2022-12-05T05:35:21.379Z,102117.81
2022-12-05T05:37:48.526Z,102113.41
2022-12-05T05:40:15.622Z,102113.47
2022-12-05T05:42:50.808Z,102114.38
2022-12-05T05:45:18.162Z,102122.31
2022-12-05T05:47:45.602Z,102114.41
2022-12-05T05:50:17.779Z,102117.91
2022-12-05T05:52:46.963Z,102112.63
2022-12-05T05:55:14.035Z,102116.22
2022-12-05T05:57:41.070Z,102110.03
2022-12-05T06:00:10.240Z,102105.69
2022-12-05T06:02:37.733Z,102113.56
2022-12-05T06:05:05.899Z,102114.50
2022-12-05T06:07:33.076Z,102110.13
2022-12-05T06:10:00.721Z,102117.16
2022-12-05T06:12:28.173Z,102114.56
2022-12-05T06:14:55.291Z,102116.31
2022-12-05T06:17:22.330Z,102113.69
2022-12-05T06:19:49.421Z,102111.97
2022-12-05T06:22:16.470Z,102116.34
2022-12-05T06:24:43.573Z,102114.63
2022-12-05T06:27:10.679Z,102119.03
2022-12-05T06:29:37.748Z,102122.56
2022-12-05T06:32:05.199Z,102118.19
2022-12-05T06:34:32.665Z,102125.22
2022-12-05T06:37:00.892Z,102121.72
2022-12-05T06:39:28.291Z,102125.28
2022-12-05T06:41:55.452Z,102118.22
2022-12-05T06:44:24.588Z,102123.50
2022-12-05T06:46:51.775Z,102125.28
2022-12-05T06:49:19.045Z,102126.19
2022-12-05T06:51:46.157Z,102129.75
2022-12-05T06:54:14.226Z,102126.22
2022-12-05T06:56:41.368Z,102134.13
2022-12-05T06:59:08.497Z,102134.16
2022-12-05T07:01:38.753Z,102132.41
2022-12-05T07:04:15.386Z,102146.47
2022-12-05T07:06:49.934Z,102145.59
2022-12-05T07:09:20.539Z,102145.66
2022-12-05T07:11:51.477Z,102139.50
2022-12-05T07:14:45.900Z,102142.13
2022-12-05T07:17:06.069Z,102139.50
2022-12-05T07:19:33.234Z,102147.47
2022-12-05T07:22:00.373Z,102143.06
2022-12-05T07:24:27.929Z,102150.06
2022-12-05T07:26:54.975Z,102145.69
2022-12-05T07:29:22.100Z,102149.22
2022-12-05T07:31:49.293Z,102151.88
2022-12-05T07:34:16.427Z,102157.13
2022-12-05T07:36:43.528Z,102158.91
2022-12-05T07:39:10.602Z,102157.16
2022-12-05T07:41:37.652Z,102160.75
2022-12-05T07:44:11.494Z,102163.34
2022-12-05T07:46:39.433Z,102165.16
2022-12-05T07:49:07.958Z,102159.00
2022-12-05T07:51:35.804Z,102164.28
2022-12-05T07:54:03.421Z,102175.69
2022-12-05T07:56:30.521Z,102171.28
2022-12-05T07:58:57.586Z,102174.84
2022-12-05T08:01:27.747Z,102179.22
2022-12-05T08:03:57.416Z,102182.78
2022-12-05T08:06:28.172Z,102178.44
2022-12-05T08:08:56.299Z,102182.78
2022-12-05T08:11:35.196Z,102178.41
2022-12-05T08:14:04.709Z,102180.16
2022-12-05T08:16:33.099Z,102180.19
2022-12-05T08:19:06.731Z,102187.19
2022-12-05T08:21:34.479Z,102187.25
2022-12-05T08:24:05.325Z,102186.34
2022-12-05T08:26:33.491Z,102184.59
2022-12-05T08:29:04.450Z,102195.19
2022-12-05T08:31:35.872Z,102190.75
2022-12-05T08:34:03.231Z,102191.69
2022-12-05T08:36:31.581Z,102203.97
2022-12-05T08:39:01.918Z,102196.97
2022-12-05T08:41:30.369Z,102190.84
2022-12-05T08:44:04.093Z,102197.88
2022-12-05T08:47:19.250Z,102201.44
2022-12-05T08:49:55.389Z,102203.19
2022-12-05T08:52:22.892Z,102197.03
2022-12-05T08:54:49.937Z,102199.66
2022-12-05T08:57:17.025Z,102200.56
2022-12-05T08:59:44.125Z,102209.38
2022-12-05T09:02:11.872Z,102212.97
2022-12-05T09:04:39.040Z,102211.16
2022-12-05T09:07:08.195Z,102214.69
2022-12-05T09:09:35.418Z,102226.16
2022-12-05T09:12:02.605Z,102216.50
2022-12-05T09:14:32.825Z,102212.09
2022-12-05T09:17:01.061Z,102210.34
2022-12-05T09:19:28.988Z,102217.34
2022-12-05T09:21:56.687Z,102214.72
2022-12-05T09:24:24.133Z,102227.06
2022-12-05T09:26:51.300Z,102229.69
2022-12-05T09:29:18.589Z,102219.22
2022-12-05T09:31:48.329Z,102217.44
2022-12-05T09:34:17.818Z,102226.28
2022-12-05T09:36:55.800Z,102227.16
2022-12-05T09:39:28.838Z,102232.44
2022-12-05T09:42:24.163Z,102234.22
2022-12-05T09:45:38.849Z,102237.72
2022-12-05T09:48:14.469Z,102234.25
2022-12-05T09:50:59.272Z,102234.25
2022-12-05T09:53:39.203Z,102239.53
2022-12-05T09:56:09.296Z,102229.91
2022-12-05T09:58:45.711Z,102236.03
2022-12-05T10:01:50.558Z,102236.94
2022-12-05T10:04:35.694Z,102238.72
2022-12-05T10:07:15.890Z,102240.50
2022-12-05T10:10:24.343Z,102236.06
2022-12-05T10:13:09.346Z,102235.19
2022-12-05T10:15:47.709Z,102233.44
2022-12-05T10:18:48.335Z,102235.25
2022-12-05T10:21:32.110Z,102236.13
2022-12-05T10:24:11.717Z,102234.38
2022-12-05T10:26:46.752Z,102232.63
2022-12-05T10:29:40.583Z,102226.47
2022-12-05T10:32:36.326Z,102225.59
2022-12-05T10:35:23.644Z,102226.50
2022-12-05T10:37:58.681Z,102231.75
2022-12-05T10:40:38.861Z,102222.09
2022-12-05T10:43:08.849Z,102222.13
2022-12-05T10:45:46.003Z,102220.34
2022-12-05T10:48:19.780Z,102230.94
2022-12-05T10:50:50.863Z,102221.28
2022-12-05T10:53:36.728Z,102222.19
2022-12-05T10:56:29.689Z,102220.44
2022-12-05T10:58:56.591Z,102223.09
2022-12-05T11:01:26.959Z,102216.94
2022-12-05T11:04:10.520Z,102218.69
2022-12-05T11:06:53.263Z,102212.56
2022-12-05T11:09:31.870Z,102210.81
2022-12-05T11:12:25.418Z,102214.34
2022-12-05T11:15:25.450Z,102217.81
2022-12-05T11:17:55.702Z,102217.84
2022-12-05T11:20:22.646Z,102218.72
2022-12-05T11:22:56.288Z,102214.31
2022-12-05T11:25:35.634Z,102210.84
2022-12-05T11:28:18.046Z,102218.75
2022-12-05T11:31:12.868Z,102209.97
2022-12-05T11:33:40.669Z,102215.25
2022-12-05T11:36:23.546Z,102218.78
2022-12-05T11:38:51.631Z,102213.53
2022-12-05T11:41:52.268Z,102210.88
2022-12-05T11:44:43.151Z,102207.41
2022-12-05T11:47:44.217Z,102213.53
2022-12-05T11:50:50.961Z,102212.63
2022-12-05T11:54:13.290Z,102209.13
2022-12-05T11:57:03.110Z,102212.63
2022-12-05T12:00:04.187Z,102215.31
2022-12-05T12:03:01.609Z,102216.19
2022-12-05T12:05:34.555Z,102217.09
2022-12-05T12:08:22.173Z,102218.84
2022-12-05T12:11:01.171Z,102216.22
2022-12-05T12:13:45.974Z,102217.97
2022-12-05T12:16:58.544Z,102218.00
2022-12-05T12:19:52.789Z,102213.56
2022-12-05T12:23:06.970Z,102209.16
2022-12-05T12:26:15.220Z,102215.38
2022-12-05T12:29:08.815Z,102210.06
2022-12-05T12:32:11.646Z,102197.75
2022-12-05T12:35:07.981Z,102203.94
2022-12-05T12:37:51.486Z,102196.00
2022-12-05T12:40:39.402Z,102206.59
2022-12-05T12:43:53.153Z,102200.41
2022-12-05T12:46:44.344Z,102199.50
2022-12-05T12:49:42.091Z,102199.50
2022-12-05T12:52:21.404Z,102195.09
2022-12-05T12:55:32.443Z,102188.94
2022-12-05T12:58:59.218Z,102188.03
2022-12-05T13:01:47.848Z,102193.34
2022-12-05T13:04:22.778Z,102184.53
2022-12-05T13:07:19.071Z,102187.19
2022-12-05T13:10:21.171Z,102190.69
2022-12-05T13:12:49.306Z,102183.66
2022-12-05T13:15:41.516Z,102190.72
2022-12-05T13:18:19.547Z,102188.97
2022-12-05T13:20:53.472Z,102188.06
2022-12-05T13:23:25.815Z,102188.97
2022-12-05T13:25:56.875Z,102190.69
2022-12-05T13:28:47.931Z,102192.47
2022-12-05T13:31:17.931Z,102190.69
2022-12-05T13:33:50.808Z,102183.66
2022-12-05T13:36:41.834Z,102188.03
2022-12-05T13:39:33.237Z,102187.16
2022-12-05T13:42:16.098Z,102188.88
2022-12-05T13:44:50.261Z,102191.50
2022-12-05T13:47:39.541Z,102187.97
2022-12-05T13:50:26.053Z,102192.34
2022-12-05T13:53:00.975Z,102198.53
2022-12-05T13:55:38.833Z,102193.25
2022-12-05T13:58:37.047Z,102197.63
2022-12-05T14:01:27.822Z,102198.53
2022-12-05T14:03:58.245Z,102202.03
2022-12-05T14:06:40.138Z,102198.53
2022-12-05T14:09:19.108Z,102188.84
2022-12-05T14:12:10.872Z,102195.00
2022-12-05T14:14:55.996Z,102197.63
2022-12-05T14:17:30.422Z,102194.13
2022-12-05T14:20:10.614Z,102196.75
2022-12-05T14:23:08.270Z,102194.09
2022-12-05T14:26:08.307Z,102198.50
2022-12-05T14:29:01.271Z,102199.41
2022-12-05T14:31:39.734Z,102195.91
2022-12-05T14:34:24.610Z,102193.25
2022-12-05T14:37:26.275Z,102195.00
2022-12-05T14:39:58.083Z,102199.41
2022-12-05T14:42:42.455Z,102193.25
2022-12-05T14:45:57.052Z,102203.81
2022-12-05T14:48:36.777Z,102200.28
2022-12-05T14:51:35.435Z,102202.03
2022-12-05T14:54:16.374Z,102202.94
2022-12-05T14:56:50.966Z,102208.19
2022-12-05T14:59:52.142Z,102208.22
2022-12-05T15:02:29.810Z,102209.06
2022-12-05T15:05:16.287Z,102208.16
2022-12-05T15:07:44.676Z,102219.66
2022-12-05T15:10:16.506Z,102217.88
2022-12-05T15:12:54.106Z,102221.41
2022-12-05T15:15:43.168Z,102218.72
2022-12-05T15:18:30.357Z,102224.94
2022-12-05T15:21:42.966Z,102230.19
2022-12-05T15:24:16.493Z,102227.53
2022-12-05T15:26:57.803Z,102234.59
2022-12-05T15:29:28.962Z,102238.97
2022-12-05T15:32:02.105Z,102231.94
2022-12-05T15:34:40.020Z,102229.31
2022-12-05T15:37:18.315Z,102228.44
2022-12-05T15:39:56.823Z,102227.47
2022-12-05T15:42:31.524Z,102235.44
2022-12-05T15:45:31.815Z,102233.66
2022-12-05T15:48:07.717Z,102231.88
2022-12-05T15:50:49.746Z,102228.34
2022-12-05T15:53:46.253Z,102231.84
2022-12-05T15:56:27.146Z,102235.38
2022-12-05T15:58:59.875Z,102230.09
2022-12-05T16:01:27.274Z,102229.25
2022-12-05T16:04:04.031Z,102231.84
2022-12-05T16:06:44.046Z,102231.88
2022-12-05T16:09:22.006Z,102238.03
2022-12-05T16:11:58.187Z,102239.78
2022-12-05T16:14:58.327Z,102239.78
2022-12-05T16:17:18.496Z,102238.91
2022-12-05T16:19:45.900Z,102231.88
2022-12-05T16:22:12.889Z,102247.72
2022-12-05T16:25:01.742Z,102241.56
2022-12-05T16:27:39.267Z,102237.16
2022-12-05T16:30:12.518Z,102240.66
2022-12-05T16:32:41.915Z,102235.38
2022-12-05T16:35:42.784Z,102245.06
2022-12-05T16:38:29.658Z,102240.69
2022-12-05T16:40:58.771Z,102243.31
2022-12-05T16:43:32.289Z,102246.81
2022-12-05T16:46:15.320Z,102247.72
2022-12-05T16:48:45.784Z,102241.56
2022-12-05T16:51:27.501Z,102245.97
2022-12-05T16:53:56.660Z,102246.81
2022-12-05T16:56:28.903Z,102243.31
2022-12-05T16:58:56.700Z,102253.00
2022-12-05T17:01:26.925Z,102253.88
2022-12-05T17:03:55.706Z,102248.59
2022-12-05T17:06:24.966Z,102250.38
2022-12-05T17:08:54.337Z,102253.88
2022-12-05T17:11:29.806Z,102253.00
2022-12-05T17:13:58.550Z,102253.91
2022-12-05T17:16:26.692Z,102255.66
2022-12-05T17:18:54.222Z,102254.75
2022-12-05T17:21:29.635Z,102254.78
2022-12-05T17:23:56.702Z,102249.50
2022-12-05T17:26:23.783Z,102254.78
2022-12-05T17:28:51.468Z,102257.44
2022-12-05T17:31:22.424Z,102257.44
2022-12-05T17:33:52.043Z,102259.19
2022-12-05T17:36:22.307Z,102255.63
2022-12-05T17:38:49.830Z,102258.28
2022-12-05T17:41:20.313Z,102259.16
2022-12-05T17:43:48.030Z,102261.81
2022-12-05T17:46:23.724Z,102267.97
2022-12-05T17:48:52.124Z,102260.94
2022-12-05T17:51:20.923Z,102263.56
2022-12-05T17:53:48.095Z,102265.31
2022-12-05T17:56:15.550Z,102263.56
2022-12-05T17:58:42.817Z,102265.31
2022-12-05T18:01:19.270Z,102266.22
2022-12-05T18:03:47.667Z,102274.13
2022-12-05T18:06:15.531Z,102279.44
2022-12-05T18:08:44.891Z,102277.69
2022-12-05T18:11:16.110Z,102275.03
2022-12-05T18:13:43.154Z,102278.53
2022-12-05T18:16:10.395Z,102275.94
2022-12-05T18:18:38.966Z,102281.19
2022-12-05T18:21:13.569Z,102289.13
2022-12-05T18:23:41.194Z,102282.97
2022-12-05T18:26:10.433Z,102281.19
2022-12-05T18:28:39.822Z,102287.38
2022-12-05T18:31:11.250Z,102287.41
2022-12-05T18:33:38.910Z,102287.38
2022-12-05T18:36:17.153Z,102284.72
2022-12-05T18:38:51.614Z,102294.44
2022-12-05T18:41:18.946Z,102293.53
2022-12-05T18:43:46.071Z,102292.63
2022-12-05T18:46:13.225Z,102294.44
2022-12-05T18:48:45.872Z,102291.78
2022-12-05T18:51:17.722Z,102292.69
2022-12-05T18:53:52.201Z,102294.44
2022-12-05T18:56:27.461Z,102293.53
2022-12-05T18:58:58.173Z,102297.94
2022-12-05T19:01:26.614Z,102303.19
2022-12-05T19:03:54.164Z,102309.38
2022-12-05T19:06:23.879Z,102312.84
2022-12-05T19:08:55.315Z,102310.22
2022-12-05T19:11:23.983Z,102319.00
2022-12-05T19:13:55.846Z,102320.78
2022-12-05T19:16:22.952Z,102318.16
2022-12-05T19:18:55.734Z,102329.59
2022-12-05T19:21:28.563Z,102317.25
2022-12-05T19:23:56.658Z,102321.63
2022-12-05T19:26:24.383Z,102320.75
2022-12-05T19:28:51.471Z,102319.88
2022-12-05T19:31:22.394Z,102324.25
2022-12-05T19:33:55.310Z,102321.59
2022-12-05T19:36:36.204Z,102313.72
2022-12-05T19:39:23.463Z,102315.47
2022-12-05T19:41:51.197Z,102313.72
2022-12-05T19:44:18.269Z,102315.47
2022-12-05T19:46:45.485Z,102311.06
2022-12-05T19:49:16.235Z,102314.56
2022-12-05T19:51:44.742Z,102311.94
2022-12-05T19:54:14.119Z,102314.56
2022-12-05T19:56:41.440Z,102307.50
2022-12-05T19:59:08.525Z,102321.59
2022-12-05T20:01:39.176Z,102318.97
2022-12-05T20:04:12.709Z,102321.63
2022-12-05T20:06:47.228Z,102327.81
2022-12-05T20:09:17.597Z,102329.56
2022-12-05T20:11:53.933Z,102329.56
2022-12-05T20:14:23.692Z,102327.78
2022-12-05T20:16:50.918Z,102328.69
2022-12-05T20:19:18.095Z,102328.69
2022-12-05T20:21:45.208Z,102333.97
2022-12-05T20:24:12.495Z,102335.69
2022-12-05T20:26:42.448Z,102343.63
2022-12-05T20:29:09.641Z,102341.88
2022-12-05T20:31:40.054Z,102342.75
2022-12-05T20:34:09.084Z,102339.25
2022-12-05T20:36:37.082Z,102335.75
2022-12-05T20:39:08.430Z,102338.34
2022-12-05T20:41:35.771Z,102339.25
2022-12-05T20:44:08.468Z,102338.41
2022-12-05T20:46:36.902Z,102338.34
2022-12-05T20:49:04.130Z,102335.69
2022-12-05T20:51:34.226Z,102333.94
2022-12-05T20:54:05.266Z,102337.47
2022-12-05T20:56:34.218Z,102335.72
2022-12-05T20:59:04.472Z,102339.25
2022-12-05T21:01:35.116Z,102341.00
2022-12-05T21:04:05.084Z,102337.50
2022-12-05T21:06:38.927Z,102332.19
2022-12-05T21:09:16.021Z,102335.75
2022-12-05T21:11:43.474Z,102328.69
2022-12-05T21:14:10.642Z,102326.91
2022-12-05T21:16:38.180Z,102327.81
2022-12-05T21:19:05.266Z,102325.19
2022-12-05T21:21:34.077Z,102328.72
2022-12-05T21:24:04.311Z,102319.06
2022-12-05T21:26:34.122Z,102319.03
2022-12-05T21:29:02.560Z,102312.00
2022-12-05T21:31:36.149Z,102320.81
2022-12-05T21:34:11.538Z,102314.66
2022-12-05T21:36:38.594Z,102318.16
2022-12-05T21:39:06.951Z,102316.41
2022-12-05T21:41:34.955Z,102312.94
2022-12-05T21:44:02.185Z,102315.53
2022-12-05T21:46:29.362Z,102318.19
2022-12-05T21:48:56.537Z,102316.44
2022-12-05T21:51:24.122Z,102314.69
2022-12-05T21:53:51.914Z,102317.34
2022-12-05T21:56:25.442Z,102310.28
2022-12-05T21:58:53.317Z,102312.03
2022-12-05T22:01:26.811Z,102321.72
2022-12-05T22:04:00.649Z,102317.31
2022-12-05T22:06:30.814Z,102318.19
2022-12-05T22:08:57.926Z,102321.72
2022-12-05T22:11:25.645Z,102327.91
2022-12-05T22:13:53.646Z,102327.00
2022-12-05T22:16:21.885Z,102330.50
2022-12-05T22:18:49.546Z,102329.63
2022-12-05T22:21:21.579Z,102332.28
2022-12-05T22:23:50.106Z,102333.16
2022-12-05T22:26:21.499Z,102326.16
2022-12-05T22:28:54.448Z,102330.47
2022-12-05T22:31:23.171Z,102334.00
2022-12-05T22:33:50.589Z,102328.75
2022-12-05T22:36:19.674Z,102334.88
2022-12-05T22:38:48.314Z,102333.13
2022-12-05T22:41:20.268Z,102331.38
2022-12-05T22:43:49.563Z,102337.53
2022-12-05T22:46:19.699Z,102339.28
2022-12-05T22:48:49.035Z,102340.16
2022-12-05T22:51:17.901Z,102333.13
2022-12-05T22:53:45.561Z,102334.84
2022-12-05T22:56:16.155Z,102332.22
2022-12-05T22:58:43.920Z,102327.84
2022-12-05T23:01:23.662Z,102335.75
2022-12-05T23:03:56.637Z,102333.97
2022-12-05T23:06:23.841Z,102334.81
2022-12-05T23:08:51.109Z,102326.91
2022-12-05T23:11:20.172Z,102327.81
2022-12-05T23:13:48.980Z,102340.09
2022-12-05T23:16:25.048Z,102329.56
2022-12-05T23:18:57.924Z,102326.03
2022-12-05T23:21:38.083Z,102327.84
2022-12-05T23:24:12.023Z,102323.44
2022-12-05T23:26:45.526Z,102330.50
2022-12-05T23:29:14.151Z,102325.22
2022-12-05T23:31:41.904Z,102324.31
2022-12-05T23:34:09.390Z,102330.50
2022-12-05T23:36:36.662Z,102324.28
2022-12-05T23:39:05.532Z,102321.66
2022-12-05T23:41:33.318Z,102321.66
2022-12-05T23:44:00.468Z,102318.13
2022-12-05T23:46:28.915Z,102319.88
2022-12-05T23:48:57.335Z,102322.53
2022-12-05T23:51:29.440Z,102317.25
2022-12-05T23:54:00.235Z,102319.91
2022-12-05T23:56:33.378Z,102315.47
2022-12-05T23:59:03.039Z,102316.38
